Time;durP1;ratioP1;P1;durP2;ratioP2;P2;SDS_P1;SDS_P2;PMS_P1;PMS_P2;Temp;Humidity;BMP_temperature;BMP_pressure;BME280_temperature;BME280_humidity;BME280_pressure;Samples;Min_cycle;Max_cycle;Signal;HPM_P1;HPM_P2
2021/10/12 00:01:00;;;;;;;1.20;1.10;;;11.50;99.90;;;;;;5107149;27;20206;-80
2021/10/12 00:03:28;;;;;;;1.10;1.00;;;11.40;99.90;;;;;;5107520;28;20291;-81
2021/10/12 00:05:55;;;;;;;3.03;1.07;;;11.40;99.90;;;;;;5112026;27;20224;-81
2021/10/12 00:08:22;;;;;;;0.80;0.80;;;11.50;99.90;;;;;;5107284;28;20542;-82
2021/10/12 00:10:49;;;;;;;1.20;1.10;;;11.40;99.90;;;;;;5116510;28;20238;-81
2021/10/12 00:13:17;;;;;;;0.90;0.90;;;11.40;99.90;;;;;;5106741;27;20204;-81
2021/10/12 00:15:45;;;;;;;0.70;0.70;;;11.40;99.90;;;;;;5116684;28;20259;-80
2021/10/12 00:18:12;;;;;;;0.70;0.70;;;11.40;99.90;;;;;;5114036;27;20200;-81
2021/10/12 00:20:39;;;;;;;0.70;0.70;;;11.50;99.90;;;;;;5119086;28;20275;-80
2021/10/12 00:23:06;;;;;;;0.60;0.60;;;11.50;99.90;;;;;;5111830;28;20267;-81
2021/10/12 00:25:33;;;;;;;0.67;0.67;;;11.50;99.90;;;;;;5119087;27;20215;-81
2021/10/12 00:28:00;;;;;;;1.07;0.80;;;11.50;99.90;;;;;;5106811;28;20715;-80
2021/10/12 00:30:28;;;;;;;0.57;0.57;;;11.50;99.90;;;;;;5107234;28;20304;-81
2021/10/12 00:32:55;;;;;;;0.70;0.70;;;11.40;99.90;;;;;;5112897;27;20220;-81
2021/10/12 00:35:23;;;;;;;0.70;0.70;;;11.30;99.90;;;;;;5113695;28;20204;-82
2021/10/12 00:37:49;;;;;;;1.00;0.90;;;11.30;99.90;;;;;;5114804;28;20598;-81
2021/10/12 00:40:16;;;;;;;0.73;0.50;;;11.20;99.90;;;;;;5115349;27;20232;-81
2021/10/12 00:42:44;;;;;;;0.60;0.60;;;11.20;99.90;;;;;;5105758;28;20202;-81
2021/10/12 00:45:13;;;;;;;0.60;0.60;;;11.10;99.90;;;;;;5106812;28;20213;-81
2021/10/12 00:47:55;;;;;;;0.50;0.50;;;11.10;99.90;;;;;;5106829;28;20209;-80
2021/10/12 00:50:22;;;;;;;0.67;0.50;;;11.00;99.90;;;;;;5106997;28;20203;-80
2021/10/12 00:52:49;;;;;;;1.60;0.50;;;11.00;99.90;;;;;;5106406;28;20219;-80
2021/10/12 00:55:17;;;;;;;0.50;0.50;;;11.00;99.90;;;;;;5108879;28;20186;-81
2021/10/12 00:57:45;;;;;;;0.40;0.40;;;10.90;99.90;;;;;;5105521;28;20288;-81
2021/10/12 01:00:13;;;;;;;0.37;0.37;;;10.90;99.90;;;;;;5106386;28;20272;-81
2021/10/12 01:02:41;;;;;;;0.40;0.40;;;10.90;99.90;;;;;;5106563;28;20209;-81
2021/10/12 01:05:09;;;;;;;0.40;0.40;;;10.90;99.90;;;;;;5107585;28;20232;-80
2021/10/12 01:07:36;;;;;;;0.50;0.50;;;10.80;99.90;;;;;;5107176;28;20291;-80
2021/10/12 01:10:06;;;;;;;0.50;0.50;;;10.90;99.90;;;;;;5110813;28;20567;-81
2021/10/12 01:12:35;;;;;;;0.50;0.50;;;10.80;99.90;;;;;;5109130;28;20266;-80
2021/10/12 01:15:04;;;;;;;0.50;0.50;;;10.80;99.90;;;;;;5111128;28;20674;-80
2021/10/12 01:17:31;;;;;;;1.40;0.70;;;10.80;99.90;;;;;;5110855;28;20722;-80
2021/10/12 01:20:01;;;;;;;1.40;1.00;;;10.70;99.90;;;;;;5110245;28;20760;-80
2021/10/12 01:22:29;;;;;;;1.80;1.17;;;10.70;99.90;;;;;;5113091;27;20223;-81
2021/10/12 01:24:57;;;;;;;0.70;0.70;;;10.70;99.90;;;;;;5112817;28;20544;-81
2021/10/12 01:27:24;;;;;;;1.73;0.83;;;10.70;99.90;;;;;;5105192;28;20200;-81
2021/10/12 01:29:51;;;;;;;1.30;0.87;;;10.60;99.90;;;;;;5109945;28;20290;-81
2021/10/12 01:32:18;;;;;;;0.93;0.67;;;10.60;99.90;;;;;;5109180;28;20224;-81
2021/10/12 01:34:45;;;;;;;0.87;0.87;;;10.60;99.90;;;;;;5110929;28;20200;-80
2021/10/12 01:37:12;;;;;;;1.03;0.83;;;10.50;99.90;;;;;;5110851;28;20210;-80
2021/10/12 01:39:41;;;;;;;0.83;0.70;;;10.50;99.90;;;;;;5116938;27;20299;-80
2021/10/12 01:42:08;;;;;;;0.93;0.60;;;10.40;99.90;;;;;;5109073;28;20195;-80
2021/10/12 01:44:35;;;;;;;0.80;0.80;;;10.40;99.90;;;;;;5108018;28;20219;-80
2021/10/12 01:47:02;;;;;;;1.47;0.93;;;10.40;99.90;;;;;;5100186;28;20224;-80
2021/10/12 01:49:29;;;;;;;1.60;0.80;;;10.30;99.90;;;;;;5109897;28;20227;-81
2021/10/12 01:51:56;;;;;;;0.60;0.60;;;10.30;99.90;;;;;;5108689;28;20244;-81
2021/10/12 01:54:25;;;;;;;0.60;0.60;;;10.30;99.90;;;;;;5110157;28;20556;-81
2021/10/12 01:56:54;;;;;;;0.80;0.80;;;10.30;99.90;;;;;;5109966;28;20749;-81
2021/10/12 01:59:21;;;;;;;1.23;1.00;;;10.20;99.90;;;;;;5109831;27;20566;-81
2021/10/12 02:01:48;;;;;;;0.83;0.80;;;10.20;99.90;;;;;;5108716;28;20183;-80
2021/10/12 02:04:15;;;;;;;2.13;1.10;;;10.10;99.90;;;;;;5109321;28;20232;-81
2021/10/12 02:06:42;;;;;;;1.13;0.90;;;10.10;99.90;;;;;;5111647;28;20211;-81
2021/10/12 02:09:09;;;;;;;1.23;1.13;;;10.10;99.90;;;;;;5109638;28;20209;-82
2021/10/12 02:11:36;;;;;;;1.27;1.03;;;10.10;99.90;;;;;;5110587;28;20208;-81
2021/10/12 02:14:05;;;;;;;1.03;0.90;;;10.10;99.90;;;;;;5107893;28;20202;-81
2021/10/12 02:16:32;;;;;;;1.53;1.10;;;10.10;99.90;;;;;;5111174;28;20206;-81
2021/10/12 02:18:59;;;;;;;2.87;0.80;;;10.10;99.90;;;;;;5114186;27;20224;-80
2021/10/12 02:21:26;;;;;;;2.63;1.10;;;10.00;99.90;;;;;;5109528;28;20205;-81
2021/10/12 02:23:53;;;;;;;0.90;0.90;;;10.00;99.90;;;;;;5107963;28;20212;-80
2021/10/12 02:26:21;;;;;;;0.87;0.80;;;10.00;99.90;;;;;;5109853;28;20205;-82
2021/10/12 02:28:48;;;;;;;1.00;0.83;;;10.00;99.90;;;;;;5106944;27;20204;-81
2021/10/12 02:31:17;;;;;;;1.60;0.90;;;9.90;99.90;;;;;;5109357;28;20196;-81
2021/10/12 02:33:44;;;;;;;1.57;1.10;;;9.90;99.90;;;;;;5108479;28;20282;-81
2021/10/12 02:36:11;;;;;;;1.87;1.33;;;9.90;99.90;;;;;;5108457;28;20693;-81
2021/10/12 02:38:39;;;;;;;1.40;1.30;;;9.90;99.90;;;;;;5118250;27;20255;-81
2021/10/12 02:41:06;;;;;;;2.07;1.23;;;9.90;99.90;;;;;;5119025;27;20275;-80
2021/10/12 02:43:33;;;;;;;2.40;1.00;;;9.80;99.90;;;;;;5095046;27;20719;-80
2021/10/12 02:46:01;;;;;;;2.17;1.00;;;9.80;99.90;;;;;;5109380;28;20201;-80
2021/10/12 02:48:29;;;;;;;0.70;0.70;;;9.80;99.90;;;;;;5096047;28;20741;-81
2021/10/12 02:50:56;;;;;;;1.70;1.20;;;9.80;99.90;;;;;;5109349;28;20205;-81
2021/10/12 02:53:23;;;;;;;0.73;0.73;;;9.80;99.90;;;;;;5105091;28;20226;-80
2021/10/12 02:55:50;;;;;;;1.33;0.93;;;9.80;99.90;;;;;;5119950;27;20274;-80
2021/10/12 02:58:17;;;;;;;1.00;0.90;;;9.70;99.90;;;;;;5106906;28;20308;-81
2021/10/12 03:00:44;;;;;;;0.97;0.83;;;9.70;99.90;;;;;;5110242;28;20682;-81
2021/10/12 03:03:11;;;;;;;2.87;1.00;;;9.70;99.90;;;;;;5110210;27;20332;-81
2021/10/12 03:05:44;;;;;;;2.47;1.27;;;9.70;99.90;;;;;;5109796;27;20194;-81
2021/10/12 03:08:11;;;;;;;2.27;1.37;;;9.70;99.90;;;;;;5108295;28;20212;-81
2021/10/12 03:10:38;;;;;;;1.77;1.40;;;9.70;99.90;;;;;;5108783;28;20284;-81
2021/10/12 03:13:05;;;;;;;1.40;1.20;;;9.60;99.90;;;;;;5107202;27;20773;-81
2021/10/12 03:15:32;;;;;;;1.40;1.20;;;9.60;99.90;;;;;;5107631;28;20629;-81
2021/10/12 03:17:59;;;;;;;2.73;1.43;;;9.60;99.90;;;;;;5108053;28;20254;-82
2021/10/12 03:20:26;;;;;;;2.27;1.30;;;9.60;99.90;;;;;;5107679;28;20209;-81
2021/10/12 03:22:55;;;;;;;2.37;1.07;;;9.60;99.90;;;;;;5111117;27;20190;-81
2021/10/12 03:25:22;;;;;;;1.27;0.73;;;9.50;99.90;;;;;;5111939;27;20207;-81
2021/10/12 03:27:49;;;;;;;1.07;0.90;;;9.50;99.90;;;;;;5110631;27;20709;-82
2021/10/12 03:30:16;;;;;;;0.97;0.80;;;9.50;99.90;;;;;;5108440;28;20202;-81
2021/10/12 03:32:43;;;;;;;0.77;0.67;;;9.50;99.90;;;;;;5108096;28;20225;-82
2021/10/12 03:35:10;;;;;;;1.70;1.00;;;9.50;99.90;;;;;;5108776;28;20187;-82
2021/10/12 03:37:37;;;;;;;1.40;1.00;;;9.60;99.90;;;;;;5109902;28;20195;-81
2021/10/12 03:40:07;;;;;;;2.00;1.30;;;9.60;99.90;;;;;;5108388;28;20692;-81
2021/10/12 03:42:34;;;;;;;1.57;1.20;;;9.60;99.90;;;;;;5105973;28;20261;-81
2021/10/12 03:45:01;;;;;;;2.27;1.43;;;9.50;99.90;;;;;;5107869;28;20192;-82
2021/10/12 03:47:28;;;;;;;1.93;1.30;;;9.50;99.90;;;;;;5108140;28;20438;-81
2021/10/12 03:49:55;;;;;;;2.23;1.43;;;9.50;99.90;;;;;;5109534;28;20230;-80
2021/10/12 03:52:22;;;;;;;1.70;1.13;;;9.50;99.90;;;;;;5107497;28;20228;-81
2021/10/12 03:54:50;;;;;;;3.97;1.70;;;9.40;99.90;;;;;;5108078;28;20207;-81
2021/10/12 03:57:18;;;;;;;1.73;1.20;;;9.90;99.90;;;;;;5108050;28;20730;-81
2021/10/12 03:59:45;;;;;;;2.90;1.37;;;9.40;99.90;;;;;;5109193;27;20196;-82
2021/10/12 04:02:12;;;;;;;2.87;1.60;;;9.40;99.90;;;;;;5107207;28;20668;-81
2021/10/12 04:04:39;;;;;;;1.30;1.13;;;9.40;99.90;;;;;;5107215;28;20236;-81
2021/10/12 04:07:06;;;;;;;2.53;1.00;;;9.40;99.90;;;;;;5107616;28;20222;-81
2021/10/12 04:09:33;;;;;;;1.90;1.10;;;9.30;99.90;;;;;;5109488;28;20210;-81
2021/10/12 04:12:00;;;;;;;1.00;0.90;;;9.30;99.90;;;;;;5106492;28;20215;-81
2021/10/12 04:14:29;;;;;;;0.97;0.80;;;9.30;99.90;;;;;;5106864;28;20208;-81
2021/10/12 04:16:56;;;;;;;1.07;0.77;;;9.30;99.90;;;;;;5108492;28;20263;-81
2021/10/12 04:19:23;;;;;;;0.90;0.80;;;9.20;99.90;;;;;;5107689;28;20553;-81
2021/10/12 04:21:50;;;;;;;1.43;0.90;;;9.30;99.90;;;;;;5107345;28;20231;-81
2021/10/12 04:24:17;;;;;;;1.13;0.87;;;9.30;99.90;;;;;;5106888;28;20678;-81
2021/10/12 04:26:44;;;;;;;1.10;1.00;;;9.30;99.90;;;;;;5109277;28;20204;-82
2021/10/12 04:29:11;;;;;;;1.57;1.00;;;9.30;99.90;;;;;;5106329;28;20200;-81
2021/10/12 04:31:39;;;;;;;1.43;1.00;;;9.30;99.90;;;;;;5106111;28;20206;-81
2021/10/12 04:34:06;;;;;;;1.63;1.20;;;9.30;99.90;;;;;;5106428;28;20722;-81
2021/10/12 04:36:33;;;;;;;1.90;1.10;;;9.30;99.90;;;;;;5108544;28;20195;-81
2021/10/12 04:39:00;;;;;;;1.80;1.27;;;9.30;99.90;;;;;;5111287;28;20214;-82
2021/10/12 04:41:27;;;;;;;1.80;1.23;;;9.40;99.90;;;;;;5107747;28;20291;-81
2021/10/12 04:43:54;;;;;;;1.70;1.10;;;9.40;99.90;;;;;;5107630;28;20211;-81
2021/10/12 04:46:21;;;;;;;1.00;1.00;;;9.40;99.90;;;;;;5112407;28;20196;-81
2021/10/12 04:48:49;;;;;;;1.73;1.00;;;9.40;99.90;;;;;;5111022;28;20249;-81
2021/10/12 04:51:16;;;;;;;1.70;0.97;;;9.50;99.90;;;;;;5111875;27;20200;-80
2021/10/12 04:53:43;;;;;;;1.37;0.87;;;9.50;99.90;;;;;;5112237;28;20211;-81
2021/10/12 04:56:11;;;;;;;0.60;0.60;;;9.50;99.90;;;;;;5111399;28;20199;-81
2021/10/12 04:58:38;;;;;;;0.63;0.63;;;9.50;99.90;;;;;;5109950;28;20198;-81
2021/10/12 05:01:05;;;;;;;1.60;0.70;;;9.50;99.90;;;;;;5111352;28;20286;-81
2021/10/12 05:03:32;;;;;;;0.40;0.40;;;9.60;99.90;;;;;;5110418;28;20728;-82
2021/10/12 05:06:00;;;;;;;1.20;0.60;;;9.60;99.90;;;;;;5112547;28;20271;-81
2021/10/12 05:08:28;;;;;;;1.57;0.80;;;9.70;99.90;;;;;;5110614;28;20581;-81
2021/10/12 05:10:55;;;;;;;1.93;0.90;;;9.70;99.90;;;;;;5112967;28;20654;-80
2021/10/12 05:13:22;;;;;;;0.70;0.70;;;9.70;99.90;;;;;;5108244;28;20739;-81
2021/10/12 05:15:50;;;;;;;0.60;0.50;;;9.70;99.90;;;;;;5112232;28;20516;-81
2021/10/12 05:18:20;;;;;;;1.50;0.70;;;9.70;99.90;;;;;;5115645;27;20620;-81
2021/10/12 05:20:48;;;;;;;5.00;0.90;;;9.70;99.90;;;;;;5109387;28;20541;-82
2021/10/12 05:23:17;;;;;;;2.00;0.70;;;9.80;99.90;;;;;;5113663;27;20596;-81
2021/10/12 05:25:46;;;;;;;3.10;0.90;;;9.80;99.90;;;;;;5116948;27;20204;-81
2021/10/12 05:28:14;;;;;;;0.93;0.93;;;9.90;99.90;;;;;;5110256;28;20927;-81
2021/10/12 05:30:42;;;;;;;2.57;1.00;;;9.90;99.90;;;;;;5110349;28;20745;-82
2021/10/12 05:33:12;;;;;;;0.50;0.50;;;9.90;99.90;;;;;;5110904;28;20741;-82
2021/10/12 05:35:39;;;;;;;1.77;0.80;;;9.90;99.90;;;;;;5118069;27;20196;-82
2021/10/12 05:38:06;;;;;;;1.03;0.60;;;9.90;99.90;;;;;;5118347;27;20210;-81
2021/10/12 05:40:35;;;;;;;1.27;0.77;;;9.90;99.90;;;;;;5112163;28;20195;-81
2021/10/12 05:43:02;;;;;;;1.53;0.80;;;10.00;99.90;;;;;;5109226;28;20220;-81
2021/10/12 05:45:29;;;;;;;1.53;0.70;;;10.00;99.90;;;;;;5108899;28;20204;-81
2021/10/12 05:47:56;;;;;;;2.97;1.17;;;10.00;99.90;;;;;;5110128;28;20221;-81
2021/10/12 05:50:23;;;;;;;3.77;1.67;;;10.00;99.90;;;;;;5110583;28;20205;-81
2021/10/12 05:52:57;;;;;;;2.63;1.63;;;10.00;99.90;;;;;;5112152;27;20217;-81
2021/10/12 05:55:30;;;;;;;1.20;1.00;;;10.00;99.90;;;;;;5110647;27;20225;-81
2021/10/12 05:58:08;;;;;;;1.00;0.90;;;10.00;99.90;;;;;;5108133;27;20313;-82
2021/10/12 06:00:36;;;;;;;1.50;0.80;;;10.00;99.90;;;;;;5108936;28;20189;-80
2021/10/12 06:03:03;;;;;;;0.60;0.60;;;10.00;99.90;;;;;;5113842;27;20563;-81
2021/10/12 06:05:30;;;;;;;1.57;0.80;;;10.00;99.90;;;;;;5111749;27;20733;-81
2021/10/12 06:07:57;;;;;;;0.93;0.80;;;10.00;99.90;;;;;;5116563;27;20684;-82
2021/10/12 06:10:24;;;;;;;2.53;1.07;;;10.00;99.90;;;;;;5113440;27;20584;-81
2021/10/12 06:12:51;;;;;;;2.03;0.90;;;10.10;99.90;;;;;;5113994;27;20302;-81
2021/10/12 06:15:20;;;;;;;1.33;0.80;;;10.20;99.90;;;;;;5111917;27;20199;-82
2021/10/12 06:17:47;;;;;;;1.37;0.90;;;10.20;99.90;;;;;;5113368;27;20202;-82
2021/10/12 06:20:13;;;;;;;0.67;0.67;;;10.20;99.90;;;;;;5108193;27;20406;-79
2021/10/12 06:22:40;;;;;;;1.83;1.20;;;10.30;99.90;;;;;;5104655;27;20297;-84
2021/10/12 06:25:11;;;;;;;2.13;1.13;;;10.30;99.90;;;;;;5106032;27;20206;-83
2021/10/12 06:27:38;;;;;;;1.43;0.90;;;10.30;99.90;;;;;;5101808;27;20230;-83
2021/10/12 06:30:06;;;;;;;2.00;0.93;;;10.40;99.90;;;;;;5102370;27;20651;-81
2021/10/12 06:32:34;;;;;;;1.50;0.90;;;10.40;99.90;;;;;;5104483;28;20234;-80
2021/10/12 06:35:01;;;;;;;1.37;1.00;;;10.40;99.90;;;;;;5108337;27;20234;-82
2021/10/12 06:37:28;;;;;;;0.83;0.83;;;10.40;99.90;;;;;;5104725;28;20568;-80
2021/10/12 06:39:55;;;;;;;1.43;0.60;;;10.50;99.90;;;;;;5104356;27;20218;-79
2021/10/12 06:42:24;;;;;;;1.33;0.50;;;10.60;99.90;;;;;;5105022;28;20202;-79
2021/10/12 06:44:55;;;;;;;3.43;0.93;;;10.60;99.90;;;;;;5105574;27;20191;-79
2021/10/12 06:47:22;;;;;;;0.70;0.57;;;11.00;99.90;;;;;;5105479;28;20195;-80
2021/10/12 06:49:50;;;;;;;1.10;0.83;;;10.90;99.90;;;;;;5109036;27;20278;-80
2021/10/12 06:52:17;;;;;;;0.83;0.70;;;11.30;99.90;;;;;;5104621;28;20298;-83
2021/10/12 06:54:46;;;;;;;4.00;0.83;;;12.30;99.90;;;;;;5104816;27;20231;-82
2021/10/12 06:57:13;;;;;;;0.67;0.60;;;13.50;99.90;;;;;;5120045;27;20909;-82
2021/10/12 06:59:40;;;;;;;0.50;0.50;;;14.80;99.90;;;;;;5106092;27;20192;-84
2021/10/12 07:02:07;;;;;;;1.93;0.70;;;16.10;99.90;;;;;;5108368;27;20222;-79
2021/10/12 07:04:34;;;;;;;1.37;0.70;;;17.30;98.10;;;;;;5107787;27;20230;-83
2021/10/12 07:07:03;;;;;;;0.90;0.70;;;18.40;95.50;;;;;;5105510;28;20206;-81
2021/10/12 07:09:30;;;;;;;2.30;0.60;;;19.30;91.90;;;;;;5105449;28;20229;-82
2021/10/12 07:11:57;;;;;;;0.97;0.80;;;19.80;90.10;;;;;;5107394;27;20187;-81
2021/10/12 07:14:24;;;;;;;0.77;0.70;;;20.40;86.90;;;;;;5099877;27;20227;-82
2021/10/12 07:16:51;;;;;;;0.60;0.60;;;21.30;84.40;;;;;;5104230;28;20619;-81
2021/10/12 07:19:18;;;;;;;1.08;0.80;;;22.00;80.80;;;;;;5105275;27;20213;-79
2021/10/12 07:21:46;;;;;;;0.95;0.90;;;22.40;76.70;;;;;;5106915;27;20188;-81
2021/10/12 07:24:14;;;;;;;2.72;0.80;;;22.90;74.70;;;;;;5104431;28;20267;-81
2021/10/12 07:26:41;;;;;;;1.30;0.90;;;23.60;72.60;;;;;;5109798;27;20207;-79
2021/10/12 07:29:08;;;;;;;0.70;0.70;;;24.40;70.10;;;;;;5103497;27;20288;-80
2021/10/12 07:31:35;;;;;;;4.00;1.05;;;25.00;63.20;;;;;;5114164;27;20202;-81
2021/10/12 07:34:02;;;;;;;0.93;0.82;;;25.40;60.60;;;;;;5110209;27;20222;-78
2021/10/12 07:36:29;;;;;;;5.95;1.23;;;25.70;59.40;;;;;;5104395;28;20195;-79
2021/10/12 07:38:56;;;;;;;2.10;0.95;;;25.70;56.60;;;;;;5106252;28;20192;-81
2021/10/12 07:41:25;;;;;;;5.32;1.70;;;25.50;55.00;;;;;;5107750;27;20207;-84
2021/10/12 07:43:52;;;;;;;1.27;1.17;;;25.30;55.30;;;;;;5099346;27;20203;-83
2021/10/12 07:46:19;;;;;;;1.30;1.20;;;25.20;55.70;;;;;;5105725;27;20208;-80
2021/10/12 07:48:46;;;;;;;3.20;1.23;;;25.40;55.90;;;;;;5105793;28;20198;-81
2021/10/12 07:51:14;;;;;;;3.28;1.13;;;25.80;53.90;;;;;;5105846;27;20256;-82
2021/10/12 07:53:41;;;;;;;1.20;1.10;;;26.20;52.60;;;;;;5104532;28;20238;-80
2021/10/12 07:56:11;;;;;;;1.15;1.05;;;26.50;51.40;;;;;;5107965;27;20191;-81
2021/10/12 07:58:43;;;;;;;1.60;0.88;;;26.80;50.50;;;;;;5099835;27;20298;-81
2021/10/12 08:01:10;;;;;;;2.65;1.00;;;27.30;49.50;;;;;;5102500;27;20287;-78
2021/10/12 08:03:41;;;;;;;1.00;0.90;;;27.70;48.70;;;;;;5105799;28;20219;-81
2021/10/12 08:06:08;;;;;;;1.52;0.90;;;28.10;48.10;;;;;;5107756;27;20188;-83
2021/10/12 08:08:35;;;;;;;1.63;1.27;;;28.60;46.40;;;;;;5103907;28;20253;-81
2021/10/12 08:11:04;;;;;;;1.10;0.88;;;28.90;45.30;;;;;;5110622;27;20196;-79
2021/10/12 08:13:33;;;;;;;1.23;1.20;;;29.30;44.70;;;;;;5110015;27;20211;-82
2021/10/12 08:16:07;;;;;;;1.27;1.13;;;29.80;43.70;;;;;;5105051;28;20192;-81
2021/10/12 08:18:35;;;;;;;2.15;1.40;;;30.30;42.70;;;;;;5110795;27;20202;-81
2021/10/12 08:21:02;;;;;;;1.65;1.45;;;30.50;41.60;;;;;;5116926;27;20198;-79
2021/10/12 08:23:29;;;;;;;1.60;1.10;;;30.30;41.10;;;;;;5119771;27;20268;-79
2021/10/12 08:25:56;;;;;;;1.55;1.20;;;29.50;41.30;;;;;;5111585;27;20562;-80
2021/10/12 08:28:23;;;;;;;1.70;1.17;;;28.60;41.60;;;;;;5112069;27;20200;-81
2021/10/12 08:30:50;;;;;;;1.40;0.93;;;27.70;42.20;;;;;;5118971;27;20199;-81
2021/10/12 08:33:18;;;;;;;1.10;1.00;;;27.20;42.80;;;;;;5111267;27;20206;-81
2021/10/12 08:35:45;;;;;;;1.38;1.05;;;27.20;42.90;;;;;;5111106;27;22073;-83
2021/10/12 08:38:18;;;;;;;1.20;1.10;;;27.50;42.50;;;;;;5115281;27;20195;-81
2021/10/12 08:40:46;;;;;;;1.30;1.20;;;27.80;41.20;;;;;;5113961;27;20252;-82
2021/10/12 08:43:15;;;;;;;1.27;1.13;;;27.50;41.50;;;;;;5109000;27;20583;-82
2021/10/12 08:45:44;;;;;;;1.20;0.90;;;26.90;42.00;;;;;;5111589;27;20278;-80
2021/10/12 08:48:12;;;;;;;0.80;0.80;;;26.90;42.50;;;;;;5113048;27;20195;-81
2021/10/12 08:50:41;;;;;;;1.48;0.95;;;27.30;42.10;;;;;;5111561;27;20226;-83
2021/10/12 08:53:08;;;;;;;0.80;0.80;;;28.20;41.40;;;;;;5110915;27;20188;-83
2021/10/12 08:55:35;;;;;;;2.10;1.50;;;29.30;40.80;;;;;;5112382;27;20298;-83
2021/10/12 08:58:04;;;;;;;1.45;1.35;;;30.60;39.00;;;;;;5111538;27;20232;-83
2021/10/12 09:00:31;;;;;;;1.20;1.10;;;31.60;38.10;;;;;;5110638;27;20227;-80
2021/10/12 09:05:53;;;;;;;2.70;1.00;;;33.20;35.00;;;;;;5113553;27;20199;-81
2021/10/12 09:08:25;;;;;;;1.30;1.20;;;33.30;33.80;;;;;;5113807;27;20199;-82
2021/10/12 09:10:52;;;;;;;1.25;1.20;;;33.40;34.20;;;;;;5111054;27;20227;-84
2021/10/12 09:13:19;;;;;;;1.50;1.40;;;33.40;33.90;;;;;;5113230;27;20210;-82
2021/10/12 09:16:05;;;;;;;2.65;1.40;;;33.20;34.20;;;;;;5111251;27;20616;-79
2021/10/12 09:18:52;;;;;;;2.25;1.40;;;32.70;34.00;;;;;;5108375;27;20204;-74
2021/10/12 09:21:25;;;;;;;1.00;0.95;;;32.10;34.40;;;;;;5114129;27;20199;-76
2021/10/12 09:24:01;;;;;;;0.88;0.88;;;31.80;34.30;;;;;;5116358;27;20205;-76
2021/10/12 09:26:31;;;;;;;0.80;0.70;;;31.70;33.60;;;;;;5104426;27;20195;-75
2021/10/12 09:29:01;;;;;;;0.90;0.90;;;31.90;32.90;;;;;;5105627;27;20196;-74
2021/10/12 09:31:34;;;;;;;0.80;0.80;;;32.10;32.60;;;;;;5108564;27;20222;-75
2021/10/12 09:34:04;;;;;;;0.80;0.80;;;31.70;32.20;;;;;;5109405;27;20311;-74
2021/10/12 09:36:35;;;;;;;0.70;0.70;;;30.90;32.80;;;;;;5106839;27;20726;-74
2021/10/12 09:39:04;;;;;;;0.63;0.63;;;30.30;33.40;;;;;;5104313;28;20234;-74
2021/10/12 09:41:31;;;;;;;1.00;1.00;;;29.90;34.10;;;;;;5113655;27;20191;-74
2021/10/12 09:44:12;;;;;;;2.35;0.95;;;29.80;34.30;;;;;;5105564;27;20256;-75
2021/10/12 09:46:40;;;;;;;1.42;1.15;;;30.00;33.70;;;;;;5108119;28;20198;-75
2021/10/12 09:49:26;;;;;;;2.35;1.40;;;29.80;33.70;;;;;;5107912;27;20737;-74
2021/10/12 09:52:03;;;;;;;0.93;0.93;;;29.70;33.80;;;;;;5107834;27;20792;-74
2021/10/12 09:54:35;;;;;;;3.80;1.50;;;29.70;33.80;;;;;;5105900;27;20212;-75
2021/10/12 09:57:04;;;;;;;2.22;1.30;;;29.50;33.80;;;;;;5105719;28;21312;-74
2021/10/12 09:59:33;;;;;;;1.20;1.20;;;29.00;34.30;;;;;;5107268;27;20857;-73
2021/10/12 10:02:01;;;;;;;1.10;1.00;;;28.90;34.80;;;;;;5106827;28;20204;-74
2021/10/12 10:04:30;;;;;;;1.27;0.95;;;28.70;35.10;;;;;;5108469;27;20703;-75
2021/10/12 10:07:05;;;;;;;1.30;1.08;;;28.40;35.50;;;;;;5107708;28;20886;-74
2021/10/12 10:09:34;;;;;;;1.08;0.98;;;28.30;35.60;;;;;;5108380;27;20721;-74
2021/10/12 10:12:02;;;;;;;1.30;1.20;;;28.30;36.30;;;;;;5108316;27;20210;-74
2021/10/12 10:14:30;;;;;;;2.67;1.80;;;28.50;35.60;;;;;;5105150;28;20565;-74
2021/10/12 10:17:00;;;;;;;2.63;1.80;;;28.60;35.60;;;;;;5106711;27;20305;-74
2021/10/12 10:19:30;;;;;;;3.15;2.78;;;28.50;35.70;;;;;;5106183;27;20593;-74
2021/10/12 10:21:57;;;;;;;3.25;2.15;;;28.70;35.50;;;;;;5103595;28;20198;-74
2021/10/12 10:24:42;;;;;;;2.83;1.98;;;28.60;35.10;;;;;;5102742;27;20862;-73
2021/10/12 10:27:30;;;;;;;1.90;1.80;;;28.50;35.40;;;;;;5105907;27;20231;-75
2021/10/12 10:30:24;;;;;;;2.83;1.67;;;28.70;35.50;;;;;;5102166;27;20192;-75
2021/10/12 10:32:53;;;;;;;2.40;2.20;;;28.40;35.40;;;;;;5103386;28;20932;-74
2021/10/12 10:35:41;;;;;;;3.05;2.22;;;27.90;35.70;;;;;;5108756;27;20261;-74
2021/10/12 10:38:33;;;;;;;2.30;2.10;;;27.40;36.20;;;;;;5107191;27;20188;-76
2021/10/12 10:41:24;;;;;;;2.72;1.67;;;27.20;36.60;;;;;;5048628;28;20724;-74
2021/10/12 10:43:57;;;;;;;2.30;1.30;;;27.40;36.40;;;;;;5031936;28;20681;-74
2021/10/12 10:46:43;;;;;;;1.02;1.02;;;27.70;36.00;;;;;;5037598;28;20815;-74
2021/10/12 10:49:16;;;;;;;3.17;1.35;;;27.90;35.70;;;;;;5038097;28;20205;-75
2021/10/12 10:51:52;;;;;;;0.85;0.82;;;28.10;35.90;;;;;;5043507;28;20831;-75
2021/10/12 10:55:04;;;;;;;1.40;1.30;;;27.80;35.30;;;;;;5043706;28;20327;-69
2021/10/12 10:57:33;;;;;;;3.22;1.00;;;27.20;35.80;;;;;;5042947;28;20209;-69
2021/10/12 11:00:24;;;;;;;2.60;0.70;;;26.00;35.70;;;;;;5042011;28;20281;-69
2021/10/12 11:02:52;;;;;;;0.70;0.68;;;24.30;36.30;;;;;;4967164;28;20734;-70
2021/10/12 11:05:40;;;;;;;1.05;0.80;;;22.90;37.20;;;;;;4980279;28;20200;-69
2021/10/12 11:08:12;;;;;;;0.60;0.55;;;21.70;38.60;;;;;;4966128;28;20858;-68
2021/10/12 11:10:39;;;;;;;0.90;0.50;;;20.90;39.70;;;;;;4983444;28;20227;-69
2021/10/12 11:13:08;;;;;;;0.60;0.60;;;20.40;40.80;;;;;;4981904;28;20283;-70
2021/10/12 11:15:47;;;;;;;1.55;0.70;;;19.90;41.80;;;;;;4982989;28;20271;-69
2021/10/12 11:18:14;;;;;;;0.50;0.50;;;19.70;42.20;;;;;;5033008;28;20609;-71
2021/10/12 11:20:43;;;;;;;0.57;0.57;;;19.70;42.40;;;;;;5058701;28;21039;-68
2021/10/12 11:23:11;;;;;;;0.50;0.50;;;19.60;42.60;;;;;;5061029;28;20701;-69
2021/10/12 11:25:38;;;;;;;0.70;0.70;;;19.40;42.80;;;;;;5055067;28;20800;-71
2021/10/12 11:28:12;;;;;;;0.75;0.60;;;19.30;42.80;;;;;;5042759;28;20198;-69
2021/10/12 11:30:40;;;;;;;0.47;0.47;;;19.40;43.20;;;;;;5053240;28;20255;-70
2021/10/12 11:33:08;;;;;;;0.55;0.55;;;19.70;43.20;;;;;;5059005;28;20719;-69
2021/10/12 11:35:37;;;;;;;0.50;0.50;;;19.90;43.20;;;;;;5052973;28;20975;-70
2021/10/12 11:38:06;;;;;;;1.30;0.60;;;20.00;43.20;;;;;;5060284;28;21062;-69
2021/10/12 11:40:34;;;;;;;0.50;0.50;;;19.90;43.00;;;;;;5101777;27;20211;-69
2021/10/12 11:43:03;;;;;;;0.50;0.50;;;19.70;43.00;;;;;;5107733;27;20190;-70
2021/10/12 11:45:32;;;;;;;0.70;0.70;;;19.60;43.20;;;;;;5101510;28;20450;-69
2021/10/12 11:48:00;;;;;;;0.77;0.77;;;19.40;43.30;;;;;;5101946;28;20434;-69
2021/10/12 11:50:27;;;;;;;0.50;0.50;;;19.10;43.70;;;;;;5101078;28;20853;-70
2021/10/12 11:52:59;;;;;;;0.50;0.50;;;18.80;43.90;;;;;;5103439;28;20196;-69
2021/10/12 11:55:29;;;;;;;0.45;0.45;;;18.50;44.90;;;;;;5105970;28;20583;-69
2021/10/12 11:58:09;;;;;;;0.50;0.50;;;18.30;44.50;;;;;;5106785;27;20491;-69
2021/10/12 12:00:39;;;;;;;0.60;0.50;;;18.20;45.00;;;;;;5102267;27;20192;-68
2021/10/12 12:03:17;;;;;;;0.30;0.30;;;18.00;45.20;;;;;;5107211;27;20184;-69
2021/10/12 12:05:50;;;;;;;0.70;0.60;;;17.80;45.20;;;;;;5102580;28;20191;-68
2021/10/12 12:08:18;;;;;;;0.55;0.55;;;17.60;45.40;;;;;;5100875;27;20454;-70
2021/10/12 12:10:46;;;;;;;0.70;0.70;;;17.50;45.70;;;;;;5103362;27;20251;-69
2021/10/12 12:13:14;;;;;;;0.68;0.68;;;17.30;46.40;;;;;;5101500;28;20203;-69
2021/10/12 12:15:43;;;;;;;0.63;0.63;;;17.20;46.00;;;;;;5104989;28;20442;-69
2021/10/12 12:18:15;;;;;;;0.90;0.90;;;17.00;46.10;;;;;;5109458;28;20447;-69
2021/10/12 12:20:57;;;;;;;1.17;0.88;;;17.20;46.60;;;;;;5104326;28;20585;-69
2021/10/12 12:23:39;;;;;;;0.82;0.80;;;17.30;46.60;;;;;;5106556;28;20431;-70
2021/10/12 12:26:09;;;;;;;0.70;0.70;;;17.40;46.30;;;;;;5110324;28;20545;-69
2021/10/12 12:28:37;;;;;;;0.98;0.98;;;17.50;46.20;;;;;;5103243;28;21264;-70
2021/10/12 12:31:23;;;;;;;0.80;0.80;;;17.70;46.00;;;;;;5106376;28;20198;-70
2021/10/12 12:33:51;;;;;;;0.60;0.60;;;17.70;45.80;;;;;;5108032;28;20224;-69
2021/10/12 12:36:19;;;;;;;0.70;0.70;;;17.70;45.60;;;;;;5100417;28;20228;-70
2021/10/12 12:38:47;;;;;;;0.70;0.70;;;17.70;45.40;;;;;;5102000;28;20560;-69
2021/10/12 12:41:22;;;;;;;0.60;0.60;;;17.70;45.40;;;;;;5102363;28;20202;-70
2021/10/12 12:43:54;;;;;;;1.65;0.80;;;17.60;45.40;;;;;;5101776;28;20583;-70
2021/10/12 12:46:24;;;;;;;0.70;0.70;;;17.50;45.50;;;;;;5100469;28;20264;-69
2021/10/12 12:49:09;;;;;;;0.80;0.70;;;17.40;45.80;;;;;;5104456;28;20665;-69
2021/10/12 12:51:39;;;;;;;0.63;0.63;;;17.20;46.10;;;;;;5104627;28;20199;-69
2021/10/12 12:54:06;;;;;;;0.80;0.80;;;17.00;46.20;;;;;;5102023;28;20712;-70
2021/10/12 12:56:35;;;;;;;0.60;0.60;;;16.90;46.40;;;;;;5100769;28;20692;-70
2021/10/12 12:59:11;;;;;;;0.63;0.60;;;16.80;46.70;;;;;;5102850;28;20276;-70
2021/10/12 13:01:50;;;;;;;0.80;0.80;;;16.70;46.90;;;;;;5097468;28;20243;-69
2021/10/12 13:04:19;;;;;;;0.80;0.80;;;16.60;47.20;;;;;;5104997;28;20233;-70